createdAt,value
2022-12-20T00:03:32.964Z,1.3
2022-12-20T00:06:18.634Z,1.8
2022-12-20T00:11:19.053Z,1.9
2022-12-20T00:16:19.585Z,1.5
2022-12-20T00:21:20.008Z,1.7
2022-12-20T00:26:20.485Z,1.3
2022-12-20T00:31:21.046Z,1.6
2022-12-20T00:36:21.423Z,1.6
2022-12-20T00:41:21.773Z,1.2
2022-12-20T00:46:22.387Z,1.1
2022-12-20T00:51:22.674Z,1.3
2022-12-20T00:56:23.084Z,1.2
2022-12-20T01:01:23.833Z,1.1
2022-12-20T01:06:23.980Z,1.8
2022-12-20T01:11:24.619Z,1.1
2022-12-20T01:16:25.111Z,1.2
2022-12-20T01:21:25.613Z,1.2
2022-12-20T01:26:26.035Z,1.3
2022-12-20T01:31:26.620Z,1.3
2022-12-20T01:36:26.983Z,0.8
2022-12-20T01:41:27.511Z,1.3
2022-12-20T01:46:28.048Z,1.4
2022-12-20T01:51:28.634Z,1.2
2022-12-20T01:56:28.910Z,1.2
2022-12-20T02:01:29.639Z,1.3
2022-12-20T02:06:30.244Z,1.2
2022-12-20T02:11:30.492Z,1.5
2022-12-20T02:16:31.079Z,1.5
2022-12-20T02:21:31.655Z,1.3
2022-12-20T02:26:32.033Z,1.5
2022-12-20T02:31:32.725Z,1.0
2022-12-20T02:36:33.130Z,1.2
2022-12-20T02:41:33.639Z,1.4
2022-12-20T02:46:34.105Z,1.9
2022-12-20T02:51:34.809Z,1.7
2022-12-20T02:56:35.004Z,1.5
2022-12-20T03:01:35.768Z,1.3
2022-12-20T03:06:36.279Z,1.6
2022-12-20T03:11:36.484Z,1.5
2022-12-20T03:16:37.058Z,1.2
2022-12-20T03:21:37.668Z,1.6
2022-12-20T03:26:37.955Z,1.3
2022-12-20T03:31:38.588Z,1.3
2022-12-20T03:36:39.060Z,1.2
2022-12-20T03:41:39.449Z,1.2
2022-12-20T03:46:39.981Z,0.9
2022-12-20T03:51:40.531Z,1.0
2022-12-20T03:56:40.900Z,1.2
2022-12-20T04:01:41.590Z,1.1
2022-12-20T04:06:42.229Z,1.1
2022-12-20T04:11:42.505Z,1.3
2022-12-20T04:16:43.024Z,1.1
2022-12-20T04:21:43.507Z,1.1
2022-12-20T04:26:43.975Z,1.2
2022-12-20T04:31:44.576Z,1.7
2022-12-20T04:36:45.014Z,0.9
2022-12-20T04:41:45.440Z,0.7
2022-12-20T04:46:46.108Z,0.8
2022-12-20T04:51:46.764Z,1.3
2022-12-20T04:56:46.856Z,1.1
2022-12-20T05:01:47.576Z,0.9
2022-12-20T05:06:48.088Z,0.9
2022-12-20T05:11:48.474Z,1.0
2022-12-20T05:16:48.884Z,1.0
2022-12-20T05:21:49.534Z,1.0
2022-12-20T05:26:50.055Z,1.0
2022-12-20T05:31:50.524Z,1.4
2022-12-20T05:36:50.951Z,1.3
2022-12-20T05:41:51.408Z,1.3
2022-12-20T05:46:51.885Z,1.3
2022-12-20T05:51:52.575Z,0.9
2022-12-20T05:56:52.728Z,0.8
2022-12-20T06:01:53.307Z,0.6
2022-12-20T06:06:54.049Z,0.6
2022-12-20T06:11:54.154Z,0.7
2022-12-20T06:16:54.783Z,0.9
2022-12-20T06:21:55.137Z,0.8
2022-12-20T06:26:55.599Z,0.9
2022-12-20T06:31:56.189Z,1.7
2022-12-20T06:36:56.707Z,1.3
2022-12-20T06:41:56.950Z,1.0
2022-12-20T06:46:57.518Z,1.3
2022-12-20T06:51:58.052Z,1.7
2022-12-20T06:56:58.627Z,1.5
2022-12-20T07:01:59.288Z,1.6
2022-12-20T07:06:59.901Z,1.7
2022-12-20T07:11:59.922Z,1.3
2022-12-20T07:17:00.557Z,1.3
2022-12-20T07:22:02.153Z,1.7
2022-12-20T07:27:01.380Z,1.6
2022-12-20T07:32:01.999Z,1.3
2022-12-20T07:37:02.504Z,1.8
2022-12-20T07:42:02.844Z,1.7
2022-12-20T07:47:03.403Z,2.0
2022-12-20T07:52:04.141Z,1.7
2022-12-20T07:57:04.372Z,2.0
2022-12-20T08:02:05.297Z,1.8
2022-12-20T08:07:05.405Z,1.3
2022-12-20T08:12:05.731Z,1.1
2022-12-20T08:17:06.337Z,1.6
2022-12-20T08:22:06.841Z,1.6
2022-12-20T08:27:07.363Z,1.1
2022-12-20T08:32:07.740Z,1.3
2022-12-20T08:37:14.498Z,1.7
2022-12-20T08:42:08.725Z,1.4
2022-12-20T08:47:09.336Z,1.5
2022-12-20T08:52:09.860Z,1.0
2022-12-20T08:57:10.358Z,1.0
2022-12-20T09:02:11.077Z,1.0
2022-12-20T09:07:11.768Z,0.7
2022-12-20T09:12:11.908Z,1.1
2022-12-20T09:17:12.321Z,0.8
2022-12-20T09:22:12.876Z,0.9
2022-12-20T09:27:13.345Z,1.1
2022-12-20T09:32:13.783Z,0.9
2022-12-20T09:37:14.441Z,0.9
2022-12-20T09:42:14.740Z,0.6
2022-12-20T09:47:15.475Z,0.6
2022-12-20T09:52:15.839Z,0.8
2022-12-20T09:57:16.334Z,0.8
2022-12-20T10:02:54.409Z,0.8
2022-12-20T10:07:17.283Z,1.2
2022-12-20T10:12:17.665Z,0.7
2022-12-20T10:17:18.106Z,0.8
2022-12-20T10:22:18.823Z,0.7
2022-12-20T10:27:19.175Z,0.7
2022-12-20T10:32:19.742Z,0.5
2022-12-20T10:37:20.248Z,0.8
2022-12-20T10:42:20.765Z,0.6
2022-12-20T10:47:21.223Z,0.5
2022-12-20T10:52:21.855Z,0.8
2022-12-20T10:57:22.167Z,0.5
2022-12-20T11:02:22.764Z,0.3
2022-12-20T11:07:23.464Z,0.8
2022-12-20T11:12:23.572Z,0.6
2022-12-20T11:17:24.035Z,0.6
2022-12-20T11:22:24.649Z,0.4
2022-12-20T11:27:24.955Z,0.4
2022-12-20T11:32:25.481Z,0.1
2022-12-20T11:37:25.901Z,0.5
2022-12-20T11:42:26.374Z,0.4
2022-12-20T11:47:26.726Z,0.4
2022-12-20T11:52:27.520Z,0.1
2022-12-20T11:57:27.694Z,0.4
2022-12-20T12:02:28.275Z,0.2
2022-12-20T12:07:29.056Z,0.2
2022-12-20T12:12:29.120Z,0.1
2022-12-20T12:17:29.800Z,0.1
2022-12-20T12:22:30.136Z,0.2
2022-12-20T12:27:30.638Z,0.3
2022-12-20T12:32:31.017Z,0.2
2022-12-20T12:37:31.625Z,0.4
2022-12-20T12:42:31.829Z,0.4
2022-12-20T12:47:32.380Z,0.5
2022-12-20T12:52:35.892Z,0.4
2022-12-20T12:57:33.222Z,0.5
2022-12-20T13:02:33.866Z,0.6
2022-12-20T13:07:34.336Z,0.7
2022-12-20T13:12:34.595Z,1.1
2022-12-20T13:17:35.082Z,0.8
2022-12-20T13:22:35.631Z,0.5
2022-12-20T13:27:35.944Z,0.6
2022-12-20T13:32:36.393Z,0.4
2022-12-20T13:37:36.841Z,0.3
2022-12-20T13:42:37.209Z,0.3
2022-12-20T13:47:37.666Z,0.5
2022-12-20T13:52:38.279Z,0.4
2022-12-20T13:57:38.589Z,0.3
2022-12-20T14:02:39.078Z,0.2
2022-12-20T14:07:39.514Z,0.2
2022-12-20T14:12:39.767Z,0.1
2022-12-20T14:17:44.626Z,0.2
2022-12-20T14:22:40.806Z,0.1
2022-12-20T14:27:41.123Z,0.1
2022-12-20T14:32:41.804Z,0.2
2022-12-20T14:37:42.070Z,0.2
2022-12-20T14:42:42.523Z,0.1
2022-12-20T14:47:42.885Z,0.2
2022-12-20T14:52:43.571Z,0.2
2022-12-20T14:57:43.797Z,0.3
2022-12-20T15:02:44.549Z,0.5
2022-12-20T15:07:45.027Z,0.4
2022-12-20T15:12:45.291Z,0.5
2022-12-20T15:17:45.620Z,0.4
2022-12-20T15:22:46.231Z,0.5
2022-12-20T15:27:46.680Z,0.3
2022-12-20T15:32:55.194Z,0.3
2022-12-20T15:37:47.758Z,0.3
2022-12-20T15:42:47.947Z,0.5
2022-12-20T15:47:48.452Z,0.2
2022-12-20T15:52:48.843Z,0.3
2022-12-20T15:57:49.271Z,0.5
2022-12-20T16:02:49.852Z,0.7
2022-12-20T16:07:50.410Z,0.3
2022-12-20T16:12:50.531Z,0.5
2022-12-20T16:17:50.953Z,0.5
2022-12-20T16:22:51.472Z,1.0
2022-12-20T16:27:51.663Z,0.9
2022-12-20T16:32:52.051Z,0.7
2022-12-20T16:37:52.954Z,0.9
2022-12-20T16:42:52.821Z,1.1
2022-12-20T16:47:53.243Z,0.5
2022-12-20T16:52:53.687Z,1.2
2022-12-20T16:57:53.994Z,1.1
2022-12-20T17:02:54.631Z,1.1
2022-12-20T17:07:54.866Z,1.1
2022-12-20T17:12:55.169Z,0.9
2022-12-20T17:17:55.640Z,0.7
2022-12-20T17:22:55.987Z,0.5
2022-12-20T17:27:56.338Z,0.5
2022-12-20T17:32:57.033Z,0.4
2022-12-20T17:37:57.141Z,0.3
2022-12-20T17:42:57.586Z,0.4
2022-12-20T17:47:57.908Z,0.3
2022-12-20T17:52:58.523Z,0.2
2022-12-20T17:57:58.735Z,0.2
2022-12-20T18:02:59.404Z,0.3
2022-12-20T18:07:59.873Z,0.3
2022-12-20T18:12:59.944Z,0.3
2022-12-20T18:18:01.290Z,0.2
2022-12-20T18:23:01.395Z,0.5
2022-12-20T18:28:01.394Z,0.4
2022-12-20T18:33:01.732Z,1.1
2022-12-20T18:38:02.103Z,0.8
2022-12-20T18:43:06.316Z,0.9
2022-12-20T18:48:02.960Z,0.6
2022-12-20T18:53:03.762Z,0.7
2022-12-20T18:58:03.823Z,0.7
2022-12-20T19:03:04.384Z,0.9
2022-12-20T19:08:05.075Z,0.8
2022-12-20T19:13:06.156Z,0.8
2022-12-20T19:18:05.589Z,0.8
2022-12-20T19:23:05.982Z,1.0
2022-12-20T19:28:06.452Z,1.0
2022-12-20T19:33:06.815Z,0.7
2022-12-20T19:38:07.335Z,1.2
2022-12-20T19:43:07.632Z,0.5
2022-12-20T19:48:08.096Z,0.8
2022-12-20T19:53:08.663Z,0.7
2022-12-20T19:58:08.936Z,0.5
2022-12-20T20:03:09.665Z,0.7
2022-12-20T20:08:09.875Z,1.1
2022-12-20T20:13:10.208Z,0.4
2022-12-20T20:18:10.763Z,0.7
2022-12-20T20:23:11.124Z,0.7
2022-12-20T20:28:11.443Z,0.4
2022-12-20T20:33:11.973Z,0.6
2022-12-20T20:38:12.539Z,1.0
2022-12-20T20:43:12.662Z,0.2
2022-12-20T20:48:13.122Z,0.5
2022-12-20T20:53:13.718Z,0.6
2022-12-20T20:58:14.011Z,1.0
2022-12-20T21:03:14.616Z,1.4
2022-12-20T21:08:15.077Z,1.5
2022-12-20T21:13:15.243Z,0.8
2022-12-20T21:18:15.666Z,0.3
2022-12-20T21:23:16.153Z,0.4
2022-12-20T21:28:21.310Z,0.5
2022-12-20T21:33:16.982Z,0.4
2022-12-20T21:38:17.543Z,0.2
2022-12-20T21:43:17.787Z,0.2
2022-12-20T21:48:18.354Z,0.3
2022-12-20T21:53:19.695Z,0.3
2022-12-20T21:58:19.159Z,0.2
2022-12-20T22:03:19.733Z,0.1
2022-12-20T22:08:20.065Z,0.4
2022-12-20T22:13:20.399Z,0.2
2022-12-20T22:18:20.808Z,0.5
2022-12-20T22:23:21.403Z,0.4
2022-12-20T22:28:21.643Z,0.4
2022-12-20T22:33:22.075Z,0.3
2022-12-20T22:38:22.718Z,0.2
2022-12-20T22:43:22.935Z,0.4
2022-12-20T22:48:23.463Z,0.2
2022-12-20T22:53:24.171Z,0.3
2022-12-20T22:58:24.328Z,0.5
2022-12-20T23:03:24.813Z,0.4
2022-12-20T23:08:25.104Z,0.4
2022-12-20T23:13:25.575Z,0.4
2022-12-20T23:18:26.000Z,0.4
2022-12-20T23:23:26.584Z,0.7
2022-12-20T23:28:26.870Z,0.6
2022-12-20T23:33:27.374Z,0.6
2022-12-20T23:38:27.799Z,1.0
2022-12-20T23:43:28.111Z,0.6
2022-12-20T23:48:28.555Z,0.6
2022-12-20T23:53:29.106Z,1.1
2022-12-20T23:58:29.434Z,0.7
